ADDS METAR Data INFO
IDs: Format: Raw Decoded Include TAF

Data at: 0857 UTC 16 Jul 2018

METAR for:PAKF (False Pass Arpt, AK, US)
Text:PAKF 160856Z AUTO 00000KT 10SM CLR 06/04 A3018 RMK AO2 SLP219 T00560044 401170056 53007
Temperature: 5.6°C ( 42°F)
Dewpoint: 4.4°C ( 40°F) [RH = 92%]
Pressure (altimeter):30.18 inches Hg (1022.1 mb) [Sea level pressure: 1021.9 mb]
Winds:calm
Visibility:10 or more sm (16+ km)
Ceiling:at least 12,000 feet AGL
Clouds:sky clear below 12,000 feet AGL
QC Flag:automated observation with no human augmentation
Text:PAKF 160756Z AUTO 28004KT 10SM CLR 07/06 A3017 RMK AO2 SLP216 T00720061
Temperature: 7.2°C ( 45°F)
Dewpoint: 6.1°C ( 43°F) [RH = 93%]
Pressure (altimeter):30.17 inches Hg (1021.8 mb) [Sea level pressure: 1021.6 mb]
Winds:from the W (280 degrees) at 5 MPH (4 knots; 2.1 m/s)
Visibility:10 or more sm (16+ km)
Ceiling:at least 12,000 feet AGL
Clouds:sky clear below 12,000 feet AGL
QC Flag:automated observation with no human augmentation
Text:PAKF 160743Z AUTO 27004KT 10SM SCT025 08/06 A3016 RMK AO2
Temperature: 8.0°C ( 46°F)
Dewpoint: 6.0°C ( 43°F) [RH = 87%]
Pressure (altimeter):30.16 inches Hg (1021.4 mb)
Winds:from the W (270 degrees) at 5 MPH (4 knots; 2.1 m/s)
Visibility:10 or more sm (16+ km)
Ceiling:at least 12,000 feet AGL
Clouds: scattered clouds at 2500 feet AGL
QC Flag:automated observation with no human augmentation
Text:PAKF 160656Z AUTO 34003KT 10SM BKN020 BKN026 09/07 A3016 RMK AO2 SLP212 T00940067
Temperature: 9.4°C ( 49°F)
Dewpoint: 6.7°C ( 44°F) [RH = 83%]
Pressure (altimeter):30.16 inches Hg (1021.4 mb) [Sea level pressure: 1021.2 mb]
Winds:from the NNW (340 degrees) at 3 MPH (3 knots; 1.5 m/s)
Visibility:10 or more sm (16+ km)
Ceiling:2000 feet AGL
Clouds: broken clouds at 2000 feet AGL, broken clouds at 2600 feet AGL
QC Flag:automated observation with no human augmentation
Text:PAKF 160633Z AUTO VRB03KT 10SM SCT012 OVC018 09/07 A3015 RMK AO2
Temperature: 9.0°C ( 48°F)
Dewpoint: 7.0°C ( 45°F) [RH = 87%]
Pressure (altimeter):30.15 inches Hg (1021.1 mb)
Winds:variable direction winds at 3 MPH (3 knots; 1.5 m/s)
Visibility:10 or more sm (16+ km)
Ceiling:1800 feet AGL
Clouds: scattered clouds at 1200 feet AGL, overcast cloud deck at 1800 feet AGL
QC Flag:automated observation with no human augmentation
Text:PAKF 160556Z AUTO 27004KT 10SM OVC014 10/07 A3016 RMK AO2 SLP211 T01000072 10117 20094 50007
Temperature: 10.0°C ( 50°F)
Dewpoint: 7.2°C ( 45°F) [RH = 83%]
Pressure (altimeter):30.16 inches Hg (1021.4 mb) [Sea level pressure: 1021.1 mb]
Winds:from the W (270 degrees) at 5 MPH (4 knots; 2.1 m/s)
Visibility:10 or more sm (16+ km)
Ceiling:1400 feet AGL
Clouds: overcast cloud deck at 1400 feet AGL
QC Flag:automated observation with no human augmentation
Text:PAKF 160553Z AUTO 28004KT 10SM BKN014 OVC018 10/07 A3016 RMK AO2
Temperature: 10.0°C ( 50°F)
Dewpoint: 7.0°C ( 45°F) [RH = 82%]
Pressure (altimeter):30.16 inches Hg (1021.4 mb)
Winds:from the W (280 degrees) at 5 MPH (4 knots; 2.1 m/s)
Visibility:10 or more sm (16+ km)
Ceiling:1400 feet AGL
Clouds: broken clouds at 1400 feet AGL, overcast cloud deck at 1800 feet AGL
QC Flag:automated observation with no human augmentation
Text:PAKF 160456Z AUTO 00000KT 10SM OVC017 11/08 A3014 RMK AO2 SLP205 T01060078
Temperature: 10.6°C ( 51°F)
Dewpoint: 7.8°C ( 46°F) [RH = 83%]
Pressure (altimeter):30.14 inches Hg (1020.7 mb) [Sea level pressure: 1020.5 mb]
Winds:calm
Visibility:10 or more sm (16+ km)
Ceiling:1700 feet AGL
Clouds: overcast cloud deck at 1700 feet AGL
QC Flag:automated observation with no human augmentation
Text:PAKF 160356Z AUTO 05008KT 6SM BR SCT020 OVC026 09/08 A3013 RMK AO2 SLP204 T00940078
Temperature: 9.4°C ( 49°F)
Dewpoint: 7.8°C ( 46°F) [RH = 90%]
Pressure (altimeter):30.13 inches Hg (1020.4 mb) [Sea level pressure: 1020.4 mb]
Winds:from the NE (50 degrees) at 9 MPH (8 knots; 4.1 m/s)
Visibility: 6 sm ( 10 km)
Ceiling:2600 feet AGL
Clouds: scattered clouds at 2000 feet AGL, overcast cloud deck at 2600 feet AGL
Weather:BR (mist)
QC Flag:automated observation with no human augmentation

TAF for:PAKF (False Pass Arpt, AK, US)
Text:No data found